Time;durP1;ratioP1;P1;durP2;ratioP2;P2;SDS_P1;SDS_P2;PMS_P1;PMS_P2;Temp;Humidity;BMP_temperature;BMP_pressure;BME280_temperature;BME280_humidity;BME280_pressure;Samples;Min_cycle;Max_cycle;Signal;HPM_P1;HPM_P2
2024/04/15 00:01:17;;;;;;;14.55;5.60;;;13.30;99.90;;;13.64;72.08;101357.44;5280018;27;20073;-71
2024/04/15 00:03:49;;;;;;;14.68;5.30;;;13.20;99.90;;;13.54;72.40;101343.34;5277696;27;20345;-71
2024/04/15 00:06:17;;;;;;;14.77;5.10;;;13.10;99.90;;;13.47;72.81;101333.69;5279413;27;20009;-71
2024/04/15 00:08:48;;;;;;;13.18;5.40;;;13.10;99.90;;;13.51;73.37;101332.75;5279368;27;20064;-71
2024/04/15 00:11:17;;;;;;;15.32;5.63;;;13.10;99.90;;;13.42;73.48;101317.75;5279143;27;19998;-71
2024/04/15 00:13:47;;;;;;;11.98;5.03;;;13.10;99.90;;;12.81;73.55;101196.97;5279483;27;20002;-71
2024/04/15 00:16:15;;;;;;;17.10;5.53;;;13.10;99.90;;;13.56;73.80;101314.97;5278481;27;20046;-71
2024/04/15 00:18:45;;;;;;;14.55;5.45;;;13.10;99.90;;;13.54;74.06;101312.34;5279295;27;20026;-71
2024/04/15 00:21:15;;;;;;;18.10;5.32;;;13.10;99.90;;;13.54;74.22;101295.50;5279736;27;20003;-71
2024/04/15 00:23:46;;;;;;;12.52;5.00;;;13.10;99.90;;;13.42;74.71;101269.03;5279010;27;20406;-71
2024/04/15 00:26:13;;;;;;;12.10;5.00;;;13.10;99.90;;;13.57;74.92;101299.00;5279702;27;20083;-71
2024/04/15 00:28:43;;;;;;;13.02;5.45;;;13.20;99.90;;;13.59;75.25;101278.63;5279348;27;20014;-71
2024/04/15 00:31:11;;;;;;;13.52;5.47;;;13.10;99.90;;;13.55;75.74;101282.19;5280035;27;19999;-71
2024/04/15 00:33:41;;;;;;;16.00;5.93;;;13.10;99.90;;;13.60;75.78;101279.50;5279634;27;20076;-71
2024/04/15 00:36:09;;;;;;;23.45;6.43;;;13.20;99.90;;;13.55;76.28;101266.25;5280058;27;20456;-71
2024/04/15 00:38:41;;;;;;;21.38;6.53;;;13.10;99.90;;;13.62;76.72;101269.75;5279958;27;20324;-70
2024/04/15 00:41:09;;;;;;;14.63;5.78;;;13.20;99.90;;;13.47;77.29;101260.13;5279976;27;20002;-71
2024/04/15 00:43:39;;;;;;;16.90;5.65;;;13.20;99.90;;;12.94;77.75;101149.94;5279837;27;20073;-72
2024/04/15 00:46:07;;;;;;;18.70;5.53;;;13.20;99.90;;;13.50;78.53;101270.75;5280385;27;20002;-71
2024/04/15 00:48:38;;;;;;;21.90;5.57;;;13.20;99.90;;;13.48;79.06;101253.94;5279702;27;19998;-71
2024/04/15 00:51:07;;;;;;;19.33;5.82;;;13.20;99.90;;;13.53;79.98;101254.75;5279945;27;20034;-71
2024/04/15 00:53:41;;;;;;;16.83;5.90;;;13.10;99.90;;;13.50;80.49;101249.47;5279760;27;20004;-71
2024/04/15 00:56:09;;;;;;;20.98;6.13;;;13.10;99.90;;;13.54;80.86;101245.91;5278541;27;19999;-71
2024/04/15 00:58:40;;;;;;;19.25;5.55;;;13.10;99.90;;;12.97;80.99;101150.78;5279626;27;20009;-71
2024/04/15 01:01:07;;;;;;;18.10;5.68;;;13.20;99.90;;;13.55;81.51;101242.31;5280243;27;20002;-71
2024/04/15 01:03:37;;;;;;;20.45;5.70;;;13.10;99.90;;;13.55;81.87;101241.44;5277446;27;20010;-70
2024/04/15 01:06:05;;;;;;;19.88;5.57;;;13.10;99.90;;;13.56;82.16;101238.78;5279591;27;19999;-71
2024/04/15 01:08:35;;;;;;;18.90;5.95;;;13.10;99.90;;;13.50;82.29;101214.94;5279282;27;19998;-70
2024/04/15 01:11:06;;;;;;;20.30;5.97;;;13.10;99.90;;;13.46;82.80;101233.56;5280233;27;20010;-71
2024/04/15 01:13:37;;;;;;;;;;;13.10;99.90;;;13.47;82.97;101230.91;5280070;27;20073;-71
2024/04/15 01:16:04;;;;;;;;;;;13.10;99.90;;;13.42;83.11;101216.78;5280029;27;19939;-70
2024/04/15 01:18:35;;;;;;;25.00;6.60;;;13.10;99.90;;;12.69;83.35;101093.56;5279390;27;20224;-71
2024/04/15 01:21:03;;;;;;;;;;;13.00;99.90;;;13.39;83.56;101216.81;5280096;27;20009;-71
2024/04/15 01:23:40;;;;;;;22.58;5.55;;;13.00;99.90;;;13.40;83.79;101212.38;5279271;27;19934;-71
2024/04/15 01:26:10;;;;;;;18.02;5.55;;;13.00;99.90;;;13.35;84.10;101204.47;5279335;27;20002;-70
2024/04/15 01:28:40;;;;;;;22.35;5.40;;;13.00;99.90;;;13.26;84.58;101201.00;5279175;27;20010;-70
2024/04/15 01:31:08;;;;;;;24.55;5.78;;;12.90;99.90;;;13.26;84.69;101199.22;5279205;27;20077;-70
2024/04/15 01:33:38;;;;;;;24.75;5.97;;;12.80;99.90;;;13.29;84.97;101193.00;5279154;27;20030;-70
2024/04/15 01:36:06;;;;;;;29.23;6.78;;;12.90;99.90;;;13.21;85.24;101200.19;5280050;27;20432;-70
2024/04/15 01:38:36;;;;;;;19.48;6.00;;;12.80;99.90;;;13.08;85.42;101164.00;5278697;27;20360;-71
2024/04/15 01:41:04;;;;;;;22.45;5.82;;;12.80;99.90;;;13.22;85.66;101181.56;5279288;27;20010;-70
2024/04/15 01:43:37;;;;;;;20.55;6.03;;;12.90;99.90;;;13.31;85.71;101178.84;5278632;27;20010;-70
2024/04/15 01:46:04;;;;;;;20.98;6.05;;;12.90;99.90;;;13.28;85.63;101170.88;5278988;27;20013;-71
2024/04/15 01:48:34;;;;;;;26.65;6.50;;;13.00;99.90;;;13.40;85.91;101177.84;5279161;27;20006;-71
2024/04/15 01:51:02;;;;;;;19.75;6.38;;;13.00;99.90;;;13.43;85.62;101170.69;5278851;27;20072;-71
2024/04/15 01:53:32;;;;;;;28.30;6.93;;;13.00;99.90;;;13.36;85.90;101162.81;5278410;27;20010;-70
2024/04/15 01:56:00;;;;;;;17.75;6.07;;;13.00;99.90;;;13.31;85.79;101162.88;5278787;27;20009;-70
2024/04/15 01:58:31;;;;;;;19.88;6.00;;;13.00;99.90;;;13.39;85.85;101170.78;5279232;27;19998;-71
2024/04/15 02:01:05;;;;;;;19.05;6.45;;;13.00;99.90;;;13.06;85.74;101095.00;5278733;27;20014;-70
2024/04/15 02:03:35;;;;;;;20.58;6.88;;;13.00;99.90;;;12.81;85.71;101040.38;5276873;27;20000;-71
2024/04/15 02:06:04;;;;;;;17.67;5.72;;;13.10;99.90;;;13.25;85.78;101117.78;5278589;27;20002;-71
2024/04/15 02:08:34;;;;;;;17.85;6.55;;;13.10;99.90;;;13.49;85.97;101156.50;5278279;27;20476;-71
2024/04/15 02:11:02;;;;;;;18.55;6.20;;;13.10;99.90;;;13.45;86.16;101147.66;5278470;27;20420;-71
2024/04/15 02:13:32;;;;;;;16.10;5.45;;;13.00;99.90;;;13.53;85.96;101167.03;5277848;27;19998;-71
2024/04/15 02:15:59;;;;;;;19.23;6.50;;;13.10;99.90;;;13.50;86.16;101155.56;5276669;27;20387;-70
2024/04/15 02:18:32;;;;;;;18.83;6.75;;;13.10;99.90;;;13.52;86.26;101148.47;5276643;27;19999;-71
2024/04/15 02:21:01;;;;;;;20.00;6.35;;;13.10;99.90;;;13.54;86.35;101144.91;5305472;27;20315;-71
2024/04/15 02:23:31;;;;;;;17.38;5.97;;;13.10;99.90;;;13.54;86.21;101131.63;5277944;27;20025;-71
2024/04/15 02:25:58;;;;;;;22.05;6.20;;;13.10;99.90;;;13.56;85.95;101128.94;5278421;27;20000;-71
2024/04/15 02:28:28;;;;;;;23.60;6.18;;;13.10;99.90;;;13.57;85.97;101128.00;5276761;27;19999;-71
2024/04/15 02:30:56;;;;;;;20.20;5.57;;;13.20;99.90;;;13.57;85.99;101125.34;5278320;27;20039;-72
2024/04/15 02:33:26;;;;;;;18.58;6.53;;;13.20;99.90;;;13.67;85.87;101131.44;5277802;27;20035;-72
2024/04/15 02:35:56;;;;;;;14.40;5.78;;;13.20;99.90;;;12.96;85.70;100986.19;5278068;27;20026;-71
2024/04/15 02:38:26;;;;;;;23.55;6.18;;;13.30;99.90;;;13.64;85.84;101105.78;5278054;27;20356;-71
2024/04/15 02:40:54;;;;;;;18.83;6.07;;;13.30;99.90;;;13.75;85.65;101100.31;5278695;27;20039;-71
2024/04/15 02:43:25;;;;;;;16.85;6.03;;;13.30;99.90;;;13.76;85.44;101104.75;5279396;27;20014;-72
2024/04/15 02:45:52;;;;;;;14.80;6.15;;;13.30;99.90;;;13.73;85.13;101099.47;5282156;27;20009;-70
2024/04/15 02:48:23;;;;;;;19.65;6.03;;;13.30;99.90;;;13.54;81.53;101098.84;5281385;27;20014;-71
2024/04/15 02:50:50;;;;;;;16.45;5.82;;;13.20;99.90;;;13.49;78.40;101101.53;5282054;27;20023;-71
2024/04/15 02:53:23;;;;;;;10.73;4.97;;;13.10;99.90;;;13.46;77.06;101083.00;5281049;27;20325;-71
2024/04/15 02:55:51;;;;;;;8.80;4.22;;;13.10;99.90;;;13.56;74.80;101103.25;5279638;27;19998;-71
2024/04/15 02:58:22;;;;;;;12.98;4.80;;;13.20;99.90;;;13.55;72.55;101085.50;5281012;27;20010;-71
2024/04/15 03:00:49;;;;;;;11.05;4.68;;;13.20;99.90;;;13.69;71.63;101077.34;5281273;27;20013;-71
2024/04/15 03:03:19;;;;;;;11.65;4.50;;;13.30;99.90;;;13.64;69.88;101075.66;5281166;27;20076;-71
2024/04/15 03:05:47;;;;;;;14.73;4.38;;;13.30;99.90;;;13.11;69.48;100978.94;5279494;27;20380;-71
2024/04/15 03:08:17;;;;;;;13.25;5.18;;;13.30;99.90;;;13.70;68.86;101079.13;5280768;27;19998;-71
2024/04/15 03:10:50;;;;;;;12.05;4.93;;;13.30;99.90;;;13.75;69.00;101076.38;5281838;27;20002;-71
2024/04/15 03:13:18;;;;;;;7.90;4.38;;;13.30;99.90;;;13.80;68.69;101069.25;5280897;27;20030;-71
2024/04/15 03:15:56;;;;;;;12.15;4.85;;;13.40;99.90;;;13.73;68.08;101065.78;5279318;27;20005;-70
2024/04/15 03:18:35;;;;;;;16.70;4.90;;;13.40;99.90;;;13.49;67.05;101040.41;5281645;27;20328;-71
2024/04/15 03:21:09;;;;;;;15.38;4.55;;;13.30;99.90;;;13.40;66.38;101055.59;5280712;27;20329;-71
2024/04/15 03:23:36;;;;;;;9.85;4.63;;;13.10;99.90;;;13.52;66.01;101048.38;5279206;27;20017;-71
2024/04/15 03:26:09;;;;;;;12.82;4.40;;;13.10;99.90;;;13.47;65.96;101047.53;5280912;27;20009;-71
2024/04/15 03:28:36;;;;;;;10.65;4.55;;;13.10;99.90;;;13.46;66.01;101051.09;5280089;27;19998;-71
2024/04/15 03:31:07;;;;;;;11.27;4.30;;;13.20;99.90;;;13.61;65.75;101034.03;5280864;27;20002;-71
2024/04/15 03:33:34;;;;;;;14.48;5.13;;;13.20;99.90;;;13.62;66.25;101029.63;5280829;27;19998;-71
2024/04/15 03:36:05;;;;;;;15.43;5.05;;;13.30;99.90;;;13.64;66.62;101026.06;5278928;27;19998;-71
2024/04/15 03:38:36;;;;;;;13.00;5.00;;;13.30;99.90;;;13.70;67.37;101017.09;5280998;27;19998;-71
2024/04/15 03:41:09;;;;;;;;;;;13.30;99.90;;;13.77;67.54;101021.41;5279534;27;19998;-71
2024/04/15 03:43:37;;;;;;;12.98;5.28;;;13.40;99.90;;;13.59;68.22;101015.47;5279535;27;20341;-71
2024/04/15 03:46:07;;;;;;;11.43;5.10;;;13.30;99.90;;;13.61;68.82;101004.81;5280385;27;20339;-71
2024/04/15 03:48:35;;;;;;;16.42;5.57;;;13.30;99.90;;;13.58;69.64;101011.06;5278656;27;19998;-71
2024/04/15 03:51:06;;;;;;;10.88;5.00;;;13.20;99.90;;;13.56;69.78;100999.59;5280267;27;20054;-71
2024/04/15 03:53:33;;;;;;;;;;;13.20;99.90;;;13.52;69.76;100994.31;5281101;27;19998;-71
2024/04/15 03:56:04;;;;;;;12.88;4.88;;;13.20;99.90;;;13.47;70.14;100991.72;5280433;27;19934;-71
2024/04/15 03:58:34;;;;;;;15.95;4.88;;;13.10;99.90;;;13.28;70.22;100979.59;5280252;27;20323;-71
2024/04/15 04:01:05;;;;;;;12.95;4.78;;;12.90;99.90;;;13.26;69.73;100973.44;5278775;27;20048;-70
2024/04/15 04:03:32;;;;;;;12.82;4.70;;;12.90;99.90;;;13.22;69.31;100974.38;5280409;27;20034;-71
2024/04/15 04:06:02;;;;;;;12.35;4.68;;;12.80;99.90;;;13.19;69.39;100974.41;5280263;27;20009;-71
2024/04/15 04:08:38;;;;;;;8.20;4.15;;;12.80;99.90;;;13.08;69.86;100960.41;5281003;27;20316;-70
2024/04/15 04:11:09;;;;;;;15.27;5.40;;;12.70;99.90;;;13.10;70.32;100963.03;5280846;27;20002;-71
2024/04/15 04:13:39;;;;;;;17.52;4.68;;;12.70;99.90;;;13.09;70.73;100964.81;5280620;27;20072;-71
2024/04/15 04:16:14;;;;;;;12.88;4.75;;;12.70;99.90;;;12.97;71.40;100972.88;5279163;27;20072;-71
2024/04/15 04:18:44;;;;;;;11.20;4.53;;;12.60;99.90;;;12.96;71.72;100957.88;5280497;27;20010;-71
2024/04/15 04:21:15;;;;;;;8.90;4.30;;;12.60;99.90;;;12.78;71.97;100950.13;5280207;27;20399;-71
2024/04/15 04:23:42;;;;;;;12.18;4.30;;;12.40;99.90;;;12.84;72.23;100949.16;5280411;27;19998;-71
2024/04/15 04:26:13;;;;;;;9.82;4.53;;;12.40;99.90;;;12.82;72.73;100958.94;5280073;27;20069;-71
2024/04/15 04:28:43;;;;;;;12.85;4.95;;;12.40;99.90;;;12.78;73.14;100954.53;5280212;27;20073;-71
2024/04/15 04:31:13;;;;;;;10.98;4.78;;;12.40;99.90;;;12.86;73.10;100947.38;5280241;27;20010;-71
2024/04/15 04:33:40;;;;;;;10.40;4.47;;;12.40;99.90;;;12.86;72.74;100947.38;5280339;27;20331;-71
2024/04/15 04:36:11;;;;;;;13.15;4.82;;;12.40;99.90;;;12.81;72.81;100939.50;5280045;27;20002;-70
2024/04/15 04:38:38;;;;;;;;;;;12.40;99.90;;;12.73;72.44;100930.75;5280322;27;19999;-71
2024/04/15 04:41:08;;;;;;;12.75;4.75;;;12.30;99.90;;;12.65;72.46;100919.34;5279983;27;19934;-71
2024/04/15 04:43:36;;;;;;;12.57;4.30;;;12.30;99.90;;;12.59;72.47;100914.09;5280472;27;20009;-71
2024/04/15 04:46:14;;;;;;;14.82;5.30;;;12.20;99.90;;;12.63;72.46;100918.47;5279815;27;20035;-71
2024/04/15 04:48:42;;;;;;;11.52;4.40;;;12.20;99.90;;;12.62;72.47;100919.34;5280085;27;20010;-71
2024/04/15 04:51:13;;;;;;;15.50;4.28;;;12.20;99.90;;;12.57;72.33;100921.19;5279527;27;20038;-71
2024/04/15 04:53:41;;;;;;;11.35;4.57;;;12.20;99.90;;;12.65;72.65;100898.09;5280016;27;20010;-71
2024/04/15 04:56:12;;;;;;;13.23;4.60;;;12.20;99.90;;;12.67;72.36;100891.00;5279724;27;20344;-71
2024/04/15 04:58:41;;;;;;;12.88;4.18;;;12.20;99.90;;;12.68;72.52;100885.66;5280361;27;20313;-71
2024/04/15 05:01:16;;;;;;;10.63;4.78;;;12.20;99.90;;;12.63;72.62;100892.81;5279891;27;20026;-71
2024/04/15 05:03:45;;;;;;;14.20;4.95;;;12.20;99.90;;;12.43;73.10;100863.00;5278769;27;20009;-71
2024/04/15 05:06:17;;;;;;;9.95;4.43;;;12.10;99.90;;;12.37;73.23;100883.41;5279517;27;20008;-71
2024/04/15 05:08:46;;;;;;;12.35;4.47;;;12.00;99.90;;;12.49;73.59;100894.75;5280083;27;19998;-71
2024/04/15 05:11:16;;;;;;;16.40;4.95;;;12.10;99.90;;;11.88;73.43;100781.47;5277603;27;20072;-71
2024/04/15 05:13:43;;;;;;;9.02;4.60;;;12.10;99.90;;;12.54;73.76;100882.28;5279216;27;20383;-71
2024/04/15 05:16:16;;;;;;;10.38;4.55;;;12.10;99.90;;;12.64;73.40;100885.72;5279057;27;20010;-72
2024/04/15 05:18:44;;;;;;;11.65;4.57;;;12.20;99.90;;;12.57;73.08;100876.09;5279666;27;20436;-71
2024/04/15 05:21:16;;;;;;;10.30;4.38;;;12.20;99.90;;;11.94;72.94;100762.84;5279329;27;20009;-72
2024/04/15 05:23:47;;;;;;;11.23;4.35;;;12.30;99.90;;;12.74;72.55;100895.31;5278015;27;19999;-71
2024/04/15 05:26:17;;;;;;;11.38;4.78;;;12.30;99.90;;;12.77;72.52;100895.31;5279682;27;20017;-71
2024/04/15 05:28:44;;;;;;;9.15;3.90;;;12.40;99.90;;;12.91;72.86;100890.66;5279358;27;20017;-71
2024/04/15 05:31:17;;;;;;;10.13;4.07;;;12.50;99.90;;;12.96;72.76;100877.34;5278833;27;20003;-71
2024/04/15 05:33:47;;;;;;;7.40;4.45;;;12.60;99.90;;;12.91;72.98;100873.88;5306337;27;20009;-70
2024/04/15 05:36:15;;;;;;;14.68;4.45;;;12.60;99.90;;;12.94;73.01;100876.47;5305790;27;20014;-71
2024/04/15 05:38:45;;;;;;;10.48;4.35;;;12.60;99.90;;;12.93;73.22;100867.63;5278799;27;20466;-70
2024/04/15 05:41:13;;;;;;;10.32;4.63;;;12.50;99.90;;;12.78;73.24;100865.19;5279075;27;20448;-70
2024/04/15 05:43:43;;;;;;;21.67;4.60;;;12.40;99.90;;;12.59;73.19;100832.72;5278979;27;20009;-70
2024/04/15 05:46:14;;;;;;;13.32;4.75;;;12.40;99.90;;;12.82;73.34;100853.63;5276516;27;20323;-71
2024/04/15 05:48:44;;;;;;;11.63;4.70;;;12.50;99.90;;;12.91;73.62;100839.38;5277062;27;20013;-71
2024/04/15 05:51:14;;;;;;;12.90;4.45;;;12.60;99.90;;;13.20;73.00;100851.31;5278633;27;19998;-71
2024/04/15 05:53:44;;;;;;;8.90;4.10;;;12.80;99.90;;;13.24;72.56;100838.91;5278603;27;20006;-71
2024/04/15 05:56:11;;;;;;;12.07;4.38;;;12.80;99.90;;;13.39;72.41;100844.81;5276942;27;20065;-71
2024/04/15 05:58:41;;;;;;;9.27;4.05;;;12.90;99.90;;;13.38;72.33;100821.81;5278572;27;20014;-71
2024/04/15 06:01:09;;;;;;;11.40;4.78;;;13.10;99.90;;;13.77;72.10;100832.66;5278837;27;20006;-71
2024/04/15 06:03:42;;;;;;;10.38;4.28;;;13.30;99.90;;;13.67;71.40;100828.41;5278189;27;20003;-71
2024/04/15 06:06:09;;;;;;;10.35;4.05;;;13.30;99.90;;;13.76;70.91;100807.88;5278282;27;20399;-71
2024/04/15 06:08:39;;;;;;;9.23;4.00;;;13.40;99.90;;;13.58;70.47;100790.47;5278367;27;20320;-70
2024/04/15 06:11:07;;;;;;;12.32;4.45;;;13.40;99.90;;;13.65;69.93;100782.38;5278527;27;20014;-72
2024/04/15 06:13:37;;;;;;;11.23;4.15;;;13.40;99.90;;;13.63;69.53;100819.63;5278001;27;19999;-71
2024/04/15 06:16:05;;;;;;;9.23;3.80;;;13.30;99.90;;;13.80;68.93;100803.38;5279424;27;20376;-71
2024/04/15 06:18:35;;;;;;;11.23;4.25;;;13.40;99.90;;;13.82;69.13;100783.81;5281257;27;19999;-71
2024/04/15 06:21:06;;;;;;;9.10;4.28;;;13.40;99.90;;;13.79;68.97;100785.66;5281658;27;20351;-72
2024/04/15 06:23:36;;;;;;;11.13;4.15;;;13.40;99.90;;;13.57;68.81;100750.63;5282207;27;19998;-72
2024/04/15 06:26:03;;;;;;;11.77;4.15;;;13.30;99.90;;;13.66;68.48;100778.81;5282013;27;20007;-72
2024/04/15 06:28:34;;;;;;;11.00;4.45;;;13.30;99.90;;;13.52;71.39;100785.28;5281483;27;20072;-71
2024/04/15 06:31:01;;;;;;;12.35;4.95;;;13.20;99.90;;;13.53;73.15;100794.97;5279912;27;20381;-75
2024/04/15 06:33:31;;;;;;;14.38;4.95;;;13.20;99.90;;;13.42;74.14;100786.31;5281447;27;20106;-70
2024/04/15 06:35:59;;;;;;;18.08;5.13;;;13.00;99.90;;;13.44;74.88;100770.34;5281614;27;20006;-71
2024/04/15 06:38:32;;;;;;;12.43;4.47;;;13.00;99.90;;;13.15;75.02;100786.78;5281408;27;20068;-70
2024/04/15 06:40:59;;;;;;;17.13;5.20;;;12.80;99.90;;;13.08;75.35;100763.91;5281289;27;20010;-77
2024/04/15 06:43:30;;;;;;;13.27;5.00;;;12.70;99.90;;;13.04;76.28;100756.00;5281004;27;19998;-69
2024/04/15 06:45:58;;;;;;;14.68;5.55;;;12.70;99.90;;;12.72;77.21;100716.66;5281400;27;19998;-68
2024/04/15 06:48:28;;;;;;;13.60;5.47;;;12.50;99.90;;;12.89;78.41;100730.53;5281322;27;20002;-69
2024/04/15 06:50:56;;;;;;;20.98;6.50;;;12.50;99.90;;;12.87;79.04;100726.16;5281791;27;20010;-69
2024/04/15 06:53:26;;;;;;;18.08;6.00;;;12.50;99.90;;;12.94;79.97;100730.47;5281392;27;20011;-68
2024/04/15 06:55:56;;;;;;;18.15;6.72;;;12.60;99.90;;;12.80;79.27;100722.72;5281336;27;20000;-69
2024/04/15 06:58:26;;;;;;;16.90;6.00;;;12.50;99.90;;;12.79;79.84;100707.72;5281196;27;20030;-68
2024/04/15 07:00:55;;;;;;;17.80;5.63;;;12.50;99.90;;;12.59;80.04;100681.47;5281285;27;20340;-69
2024/04/15 07:03:25;;;;;;;19.40;5.60;;;12.40;99.90;;;12.68;80.42;100683.97;5281075;27;19999;-68
2024/04/15 07:05:53;;;;;;;19.90;6.45;;;12.40;99.90;;;12.51;81.28;100670.09;5281122;27;20007;-68
2024/04/15 07:08:24;;;;;;;15.82;6.55;;;12.30;99.90;;;12.73;81.89;100680.38;5281408;27;20002;-68
2024/04/15 07:10:55;;;;;;;16.33;6.32;;;12.30;99.90;;;12.65;81.98;100680.50;5281140;27;20010;-69
2024/04/15 07:13:25;;;;;;;20.25;6.13;;;12.30;99.90;;;12.49;82.41;100652.44;5281411;27;20323;-69
2024/04/15 07:15:53;;;;;;;20.50;6.63;;;12.30;99.90;;;12.69;82.94;100663.63;5281046;27;20072;-69
2024/04/15 07:18:23;;;;;;;18.92;6.38;;;12.30;99.90;;;12.57;83.07;100677.09;5280573;27;20022;-69
2024/04/15 07:20:51;;;;;;;14.63;6.28;;;12.30;99.90;;;12.40;83.50;100665.88;5281030;27;20003;-68
2024/04/15 07:23:21;;;;;;;21.02;6.82;;;12.10;99.90;;;12.39;83.69;100672.06;5280615;27;20010;-68
2024/04/15 07:25:59;;;;;;;14.82;6.32;;;12.10;99.90;;;12.08;83.09;100613.28;5278718;27;20006;-68
2024/04/15 07:28:29;;;;;;;16.92;6.53;;;12.00;99.90;;;12.29;83.54;100649.25;5281136;27;20009;-68
2024/04/15 07:30:59;;;;;;;17.35;6.55;;;11.90;99.90;;;12.39;83.88;100648.19;5280924;27;20002;-68
2024/04/15 07:33:30;;;;;;;22.27;5.90;;;12.00;99.90;;;12.37;83.21;100632.28;5280889;27;20320;-68
2024/04/15 07:36:00;;;;;;;21.92;7.18;;;12.00;99.90;;;12.46;83.37;100615.38;5279607;27;20006;-68
2024/04/15 07:38:30;;;;;;;15.15;6.32;;;12.10;99.90;;;12.23;83.45;100614.84;5281332;27;20006;-68
2024/04/15 07:41:01;;;;;;;29.55;7.68;;;11.90;99.90;;;11.54;83.39;100490.41;5280715;27;20328;-68
2024/04/15 07:43:31;;;;;;;18.55;7.30;;;11.90;99.90;;;12.28;83.98;100608.59;5280669;27;20340;-68
2024/04/15 07:45:59;;;;;;;25.63;7.03;;;11.90;99.90;;;11.97;83.75;100553.38;5281112;27;20002;-68
2024/04/15 07:48:29;;;;;;;21.77;9.10;;;11.90;99.90;;;12.20;83.76;100589.25;5280265;27;19998;-68
2024/04/15 07:50:57;;;;;;;22.90;8.05;;;11.80;99.90;;;11.58;83.86;100492.13;5280594;27;20030;-68
2024/04/15 07:53:27;;;;;;;24.02;7.90;;;11.80;99.90;;;12.01;84.04;100576.31;5280371;27;19999;-68
2024/04/15 07:55:54;;;;;;;24.65;7.82;;;11.70;99.90;;;12.00;84.11;100569.25;5281099;27;20011;-68
2024/04/15 07:58:30;;;;;;;24.83;7.50;;;11.70;99.90;;;12.01;84.38;100560.41;5280326;27;19998;-68
2024/04/15 08:00:58;;;;;;;22.88;8.35;;;11.70;99.90;;;11.35;84.89;100414.78;5280476;27;20042;-68
2024/04/15 08:03:28;;;;;;;16.88;6.72;;;11.70;99.90;;;11.92;84.14;100528.75;5280465;27;20459;-68
2024/04/15 08:05:55;;;;;;;19.48;7.47;;;11.60;99.90;;;12.07;84.68;100541.75;5280259;27;20030;-68
2024/04/15 08:08:26;;;;;;;17.33;7.72;;;11.70;99.90;;;12.25;85.16;100513.16;5280247;27;20010;-68
2024/04/15 08:10:53;;;;;;;27.70;7.35;;;11.90;99.90;;;11.98;84.35;100496.84;5279151;27;20009;-69
2024/04/15 08:13:23;;;;;;;19.30;6.47;;;11.90;99.90;;;11.99;84.30;100490.63;5280192;27;20002;-70
2024/04/15 08:15:54;;;;;;;14.55;6.93;;;11.80;99.90;;;12.23;84.83;100500.84;5280793;27;20010;-68
2024/04/15 08:18:24;;;;;;;23.55;7.45;;;11.80;99.90;;;12.23;84.93;100514.09;5280413;27;19999;-69
2024/04/15 08:20:55;;;;;;;20.73;7.38;;;11.90;99.90;;;12.08;84.53;100496.66;5280459;27;20046;-68
2024/04/15 08:23:25;;;;;;;22.27;7.00;;;11.80;99.90;;;12.18;84.50;100492.94;5280217;27;20009;-70
2024/04/15 08:25:55;;;;;;;12.13;5.80;;;11.80;99.90;;;12.22;84.83;100475.22;5280055;27;19998;-70
2024/04/15 08:28:26;;;;;;;19.27;6.63;;;11.90;99.90;;;12.13;84.25;100465.66;5280332;27;20387;-69
2024/04/15 08:30:56;;;;;;;20.52;6.53;;;11.80;99.90;;;12.21;84.60;100463.75;5280171;27;19998;-69
2024/04/15 08:33:26;;;;;;;16.80;6.35;;;11.90;99.90;;;12.19;84.26;100459.38;5279972;27;20014;-70
2024/04/15 08:35:54;;;;;;;18.02;6.78;;;11.90;99.90;;;12.17;84.10;100438.19;5280662;27;19998;-70
2024/04/15 08:38:24;;;;;;;14.95;5.85;;;11.90;99.90;;;12.17;84.35;100458.53;5277073;27;20009;-70
2024/04/15 08:41:01;;;;;;;16.20;5.95;;;11.90;99.90;;;12.19;84.79;100440.81;5280280;27;20440;-70
2024/04/15 08:43:34;;;;;;;16.90;5.68;;;11.90;99.90;;;12.15;84.13;100386.09;5280008;27;19998;-69
2024/04/15 08:46:22;;;;;;;18.20;5.50;;;11.90;99.90;;;12.32;83.84;100406.09;5279921;27;20076;-69
2024/04/15 08:48:57;;;;;;;14.63;5.13;;;12.00;99.90;;;12.32;83.39;100413.16;5280531;27;20002;-69
2024/04/15 08:51:29;;;;;;;20.67;5.00;;;12.00;99.90;;;12.34;82.91;100395.44;5277855;27;20021;-69
2024/04/15 08:54:01;;;;;;;23.52;4.95;;;12.10;99.90;;;12.28;82.03;100385.81;5276651;27;20006;-69
2024/04/15 08:56:39;;;;;;;15.32;5.38;;;12.00;99.90;;;12.38;82.13;100387.41;5280369;27;20005;-69
2024/04/15 08:59:11;;;;;;;17.55;5.18;;;12.00;99.90;;;12.37;81.42;100366.19;5280367;27;20010;-70
2024/04/15 09:01:42;;;;;;;19.20;5.38;;;12.10;99.90;;;12.64;81.47;100363.88;5279757;27;19998;-69
2024/04/15 09:04:12;;;;;;;19.35;6.40;;;12.20;99.90;;;12.42;81.98;100330.75;5279626;27;19998;-70
2024/04/15 09:06:40;;;;;;;18.88;5.75;;;12.30;99.90;;;12.62;80.59;100362.13;5279487;27;20010;-70
2024/04/15 09:09:13;;;;;;;17.02;4.85;;;12.30;99.90;;;12.58;81.06;100361.34;5279516;27;20006;-70
2024/04/15 09:11:40;;;;;;;15.57;5.60;;;12.30;99.90;;;12.58;80.97;100353.38;5279574;27;19999;-70
2024/04/15 09:14:10;;;;;;;19.55;5.70;;;12.30;99.90;;;12.53;81.96;100357.03;5279270;27;20010;-70
2024/04/15 09:16:41;;;;;;;16.42;5.45;;;12.30;99.90;;;12.53;83.04;100334.03;5279647;27;20451;-70
2024/04/15 09:19:11;;;;;;;12.52;5.32;;;12.20;99.90;;;12.40;84.13;100310.47;5279337;27;20006;-70
2024/04/15 09:21:39;;;;;;;24.73;6.22;;;12.10;99.90;;;12.24;85.07;100315.19;5277920;27;20010;-70
2024/04/15 09:24:12;;;;;;;18.52;5.28;;;12.00;99.90;;;12.25;85.77;100310.78;5279364;27;20013;-71
2024/04/15 09:26:39;;;;;;;15.70;5.78;;;11.90;99.90;;;11.46;85.84;100185.09;5279300;27;19998;-70
2024/04/15 09:29:12;;;;;;;15.93;5.93;;;11.90;99.90;;;12.16;86.45;100305.63;5279175;27;20013;-70
2024/04/15 09:31:43;;;;;;;19.42;5.88;;;11.80;99.90;;;12.21;87.05;100285.22;5279064;27;20009;-70
2024/04/15 09:34:13;;;;;;;18.40;6.35;;;11.90;99.90;;;12.15;86.85;100303.91;5279158;27;19999;-71
2024/04/15 09:36:51;;;;;;;20.15;6.25;;;11.90;99.90;;;12.17;86.84;100302.97;5279149;27;20014;-71
2024/04/15 09:39:23;;;;;;;14.10;5.63;;;11.90;99.90;;;12.03;86.47;100289.13;5277257;27;20057;-71
2024/04/15 09:41:54;;;;;;;12.77;5.30;;;11.80;99.90;;;11.95;86.32;100253.03;5279711;27;19998;-71
2024/04/15 09:44:29;;;;;;;16.70;5.53;;;11.70;99.90;;;12.04;87.17;100264.34;5279018;27;20006;-71
2024/04/15 09:47:01;;;;;;;16.73;6.07;;;11.70;99.90;;;12.09;87.25;100243.06;5279497;27;20073;-72
2024/04/15 09:49:32;;;;;;;12.73;5.40;;;11.80;99.90;;;12.09;86.43;100248.34;5280682;27;20359;-71
2024/04/15 09:52:04;;;;;;;14.95;5.50;;;11.80;99.90;;;11.86;87.33;100216.16;5280450;27;19995;-71
2024/04/15 09:54:45;;;;;;;12.73;5.22;;;11.70;99.90;;;11.76;87.52;100211.03;5282770;27;20002;-71
2024/04/15 09:57:18;;;;;;;18.98;5.90;;;11.60;99.90;;;12.03;87.78;100225.50;5283318;27;19998;-70
2024/04/15 09:59:57;;;;;;;15.10;5.60;;;11.70;99.90;;;12.06;88.07;100213.97;5282137;27;20329;-70
2024/04/15 10:02:36;;;;;;;21.80;6.07;;;11.80;99.90;;;11.89;88.14;100173.66;5281781;27;20010;-73
2024/04/15 10:05:22;;;;;;;16.23;6.05;;;11.80;99.90;;;12.16;87.90;100195.16;5282095;27;20365;-73
2024/04/15 10:07:52;;;;;;;11.60;4.72;;;11.80;99.90;;;12.06;87.92;100192.75;5282510;27;20006;-71
2024/04/15 10:10:24;;;;;;;15.70;5.47;;;11.80;99.90;;;12.06;88.35;100183.00;5281745;27;20010;-73
2024/04/15 10:12:54;;;;;;;20.48;5.18;;;11.80;99.90;;;12.16;89.70;100181.03;5281774;27;19998;-77
2024/04/15 10:15:25;;;;;;;15.95;5.05;;;11.80;99.90;;;12.20;89.26;100174.75;5308567;27;19998;-71
2024/04/15 10:18:04;;;;;;;19.67;4.93;;;11.90;99.90;;;12.22;88.40;100144.66;5309036;27;19999;-71
2024/04/15 10:20:37;;;;;;;12.18;4.82;;;11.90;99.90;;;11.98;89.30;100137.25;5280618;27;19999;-71